This is the latest recevied weather packets stored in our database for station/object F4ETJ-1. If no packets are shown the sender has not sent any weather packets the latest 10 day(s).
| Time | Temp. | Humidity | Pressure | Rain* | Wind** | Luminosity | Snow |
|---|---|---|---|---|---|---|---|
| 1777672046 | 15° C | 88% | 1017.7 hPa | 0 mm | - | - | - |
| 1777669164 | 16.11° C | 84% | 1017.6 hPa | 0 mm | - | - | - |
| 1777668804 | 16.11° C | 84% | 1017.5 hPa | 0 mm | - | - | - |
| 1777668446 | 16.11° C | 84% | 1017.5 hPa | 0 mm | - | - | - |
| 1777667365 | 16.67° C | 84% | 1017.3 hPa | 0 mm | - | - | - |
| 1777667002 | 16.67° C | 82% | 1017.3 hPa | 0 mm | - | - | - |
| 1777666645 | 16.67° C | 82% | 1017.3 hPa | 0 mm | - | - | - |
| 1777665923 | 17.22° C | 81% | 1017.2 hPa | 0 mm | - | - | - |
| 1777664480 | 17.78° C | 76% | 1017.1 hPa | 0 mm | - | - | - |
| 1777663040 | 18.33° C | 77% | 1017 hPa | 0 mm | - | - | - |
| 1777661958 | 19.44° C | 73% | 1017 hPa | 0 mm | - | - | - |
| 1777660156 | 21.11° C | 66% | 1017 hPa | 0 mm | - | - | - |
| 1777659796 | 21.11° C | 65% | 1017 hPa | 0 mm | - | - | - |
| 1777657994 | 22.22° C | 60% | 1016.9 hPa | 0 mm | - | - | - |
| 1777655472 | 22.78° C | 59% | 1016.8 hPa | 0 mm | - | - | - |
| 1777654751 | 23.33° C | 55% | 1016.8 hPa | 0 mm | - | - | - |
| 1777653670 | 23.89° C | 52% | 1016.7 hPa | 0 mm | - | - | - |
| 1777652589 | 23.89° C | 54% | 1016.8 hPa | 0 mm | - | - | - |
| 1777651868 | 24.44° C | 53% | 1016.9 hPa | 0 mm | - | - | - |
| 1777649346 | 23.33° C | 55% | 1017.1 hPa | 0 mm | - | - | - |
| 1777648986 | 23.89° C | 55% | 1017.1 hPa | 0 mm | - | - | - |
| 1777647544 | 23.89° C | 55% | 1017.3 hPa | 0 mm | - | - | - |
| 1777647184 | 23.89° C | 56% | 1017.4 hPa | 0 mm | - | - | - |
| 1777646823 | 24.44° C | 56% | 1017.3 hPa | 0 mm | - | - | - |
| 1777646463 | 25° C | 51% | 1017.4 hPa | 0 mm | - | - | - |
* Rain latest hour (hover to see other rain measurements)
** Current wind speed in m/s (hover to see current wind gust speed)